sensor_id;sensor_type;location;lat;lon;timestamp;temperature;humidity
10583;DHT22;33679;51.218;6.786;2024-02-21T00:00:22;13.10;99.90
10583;DHT22;33679;51.218;6.786;2024-02-21T00:02:54;13.00;99.90
10583;DHT22;33679;51.218;6.786;2024-02-21T00:05:30;13.00;99.90
10583;DHT22;33679;51.218;6.786;2024-02-21T00:08:04;13.00;99.90
10583;DHT22;33679;51.218;6.786;2024-02-21T00:10:36;13.00;99.90
10583;DHT22;33679;51.218;6.786;2024-02-21T00:13:09;13.00;99.90
10583;DHT22;33679;51.218;6.786;2024-02-21T00:15:41;13.00;99.90
10583;DHT22;33679;51.218;6.786;2024-02-21T00:18:13;13.00;99.90
10583;DHT22;33679;51.218;6.786;2024-02-21T00:20:46;13.00;99.90
10583;DHT22;33679;51.218;6.786;2024-02-21T00:23:20;13.00;99.90
10583;DHT22;33679;51.218;6.786;2024-02-21T00:25:52;13.10;99.90
10583;DHT22;33679;51.218;6.786;2024-02-21T00:28:25;13.00;99.90
10583;DHT22;33679;51.218;6.786;2024-02-21T00:30:57;13.00;99.90
10583;DHT22;33679;51.218;6.786;2024-02-21T00:33:29;13.10;99.90
10583;DHT22;33679;51.218;6.786;2024-02-21T00:36:03;13.10;99.90
10583;DHT22;33679;51.218;6.786;2024-02-21T00:38:37;13.00;99.90
10583;DHT22;33679;51.218;6.786;2024-02-21T00:41:09;13.00;99.90
10583;DHT22;33679;51.218;6.786;2024-02-21T00:43:41;13.00;99.90
10583;DHT22;33679;51.218;6.786;2024-02-21T00:46:15;13.10;99.90
10583;DHT22;33679;51.218;6.786;2024-02-21T00:48:48;13.00;99.90
10583;DHT22;33679;51.218;6.786;2024-02-21T00:51:20;13.00;99.90
10583;DHT22;33679;51.218;6.786;2024-02-21T00:53:54;13.00;99.90
10583;DHT22;33679;51.218;6.786;2024-02-21T00:56:27;13.00;99.90
10583;DHT22;33679;51.218;6.786;2024-02-21T00:59:00;13.00;99.90
10583;DHT22;33679;51.218;6.786;2024-02-21T01:01:33;13.10;99.90
10583;DHT22;33679;51.218;6.786;2024-02-21T01:04:08;13.00;99.90
10583;DHT22;33679;51.218;6.786;2024-02-21T01:06:41;13.00;99.90
10583;DHT22;33679;51.218;6.786;2024-02-21T01:09:16;13.10;99.90
10583;DHT22;33679;51.218;6.786;2024-02-21T01:11:48;13.10;99.90
10583;DHT22;33679;51.218;6.786;2024-02-21T01:14:21;13.10;99.90
10583;DHT22;33679;51.218;6.786;2024-02-21T01:16:53;13.10;99.90
10583;DHT22;33679;51.218;6.786;2024-02-21T01:19:26;13.10;99.90
10583;DHT22;33679;51.218;6.786;2024-02-21T01:21:59;13.10;99.90
10583;DHT22;33679;51.218;6.786;2024-02-21T01:24:32;13.10;99.90
10583;DHT22;33679;51.218;6.786;2024-02-21T01:27:05;13.20;99.90
10583;DHT22;33679;51.218;6.786;2024-02-21T01:29:37;13.20;99.90
10583;DHT22;33679;51.218;6.786;2024-02-21T01:32:10;13.10;99.90
10583;DHT22;33679;51.218;6.786;2024-02-21T01:34:43;13.10;99.90
10583;DHT22;33679;51.218;6.786;2024-02-21T01:37:15;13.10;99.90
10583;DHT22;33679;51.218;6.786;2024-02-21T01:39:51;13.20;99.90
10583;DHT22;33679;51.218;6.786;2024-02-21T01:42:25;13.10;99.90
10583;DHT22;33679;51.218;6.786;2024-02-21T01:44:59;13.10;99.90
10583;DHT22;33679;51.218;6.786;2024-02-21T01:47:33;13.10;99.90
10583;DHT22;33679;51.218;6.786;2024-02-21T01:50:06;13.10;99.90
10583;DHT22;33679;51.218;6.786;2024-02-21T01:52:39;13.10;99.90
10583;DHT22;33679;51.218;6.786;2024-02-21T01:55:14;13.10;99.90
10583;DHT22;33679;51.218;6.786;2024-02-21T01:57:46;13.10;99.90
10583;DHT22;33679;51.218;6.786;2024-02-21T02:00:20;13.10;99.90
10583;DHT22;33679;51.218;6.786;2024-02-21T02:02:52;13.10;99.90
10583;DHT22;33679;51.218;6.786;2024-02-21T02:05:27;13.10;99.90
10583;DHT22;33679;51.218;6.786;2024-02-21T02:08:00;13.10;99.90
10583;DHT22;33679;51.218;6.786;2024-02-21T02:10:34;13.10;99.90
10583;DHT22;33679;51.218;6.786;2024-02-21T02:13:06;13.10;99.90
10583;DHT22;33679;51.218;6.786;2024-02-21T02:15:39;13.10;99.90
10583;DHT22;33679;51.218;6.786;2024-02-21T02:18:13;13.10;99.90
10583;DHT22;33679;51.218;6.786;2024-02-21T02:20:46;13.20;99.90
10583;DHT22;33679;51.218;6.786;2024-02-21T02:23:24;13.20;99.90
10583;DHT22;33679;51.218;6.786;2024-02-21T02:25:58;13.20;99.90
10583;DHT22;33679;51.218;6.786;2024-02-21T02:28:31;13.20;99.90
10583;DHT22;33679;51.218;6.786;2024-02-21T02:31:04;13.20;99.90
10583;DHT22;33679;51.218;6.786;2024-02-21T02:33:37;13.20;99.90
10583;DHT22;33679;51.218;6.786;2024-02-21T02:36:10;13.20;99.90
10583;DHT22;33679;51.218;6.786;2024-02-21T02:38:44;13.20;99.90
10583;DHT22;33679;51.218;6.786;2024-02-21T02:41:16;13.20;99.90
10583;DHT22;33679;51.218;6.786;2024-02-21T02:43:48;13.20;99.90
10583;DHT22;33679;51.218;6.786;2024-02-21T02:46:21;13.20;99.90
10583;DHT22;33679;51.218;6.786;2024-02-21T02:48:53;13.20;99.90
10583;DHT22;33679;51.218;6.786;2024-02-21T02:51:25;13.20;99.90
10583;DHT22;33679;51.218;6.786;2024-02-21T02:54:01;13.20;99.90
10583;DHT22;33679;51.218;6.786;2024-02-21T02:56:34;13.10;99.90
10583;DHT22;33679;51.218;6.786;2024-02-21T02:59:06;13.10;99.90
10583;DHT22;33679;51.218;6.786;2024-02-21T03:01:39;13.10;99.90
10583;DHT22;33679;51.218;6.786;2024-02-21T03:04:11;13.10;99.90
10583;DHT22;33679;51.218;6.786;2024-02-21T03:06:43;13.10;99.90
10583;DHT22;33679;51.218;6.786;2024-02-21T03:09:17;13.10;99.90
10583;DHT22;33679;51.218;6.786;2024-02-21T03:11:49;13.10;99.90
10583;DHT22;33679;51.218;6.786;2024-02-21T03:14:23;13.10;99.90
10583;DHT22;33679;51.218;6.786;2024-02-21T03:16:55;13.10;99.90
10583;DHT22;33679;51.218;6.786;2024-02-21T03:19:28;13.10;99.90
10583;DHT22;33679;51.218;6.786;2024-02-21T03:22:00;13.10;99.90
10583;DHT22;33679;51.218;6.786;2024-02-21T03:24:36;13.10;99.90
10583;DHT22;33679;51.218;6.786;2024-02-21T03:27:08;13.10;99.90
10583;DHT22;33679;51.218;6.786;2024-02-21T03:29:41;13.10;99.90
10583;DHT22;33679;51.218;6.786;2024-02-21T03:32:13;13.00;99.90
10583;DHT22;33679;51.218;6.786;2024-02-21T03:34:45;13.10;99.90
10583;DHT22;33679;51.218;6.786;2024-02-21T03:37:18;13.10;99.90
10583;DHT22;33679;51.218;6.786;2024-02-21T03:39:51;13.10;99.90
10583;DHT22;33679;51.218;6.786;2024-02-21T03:42:24;13.10;99.90
10583;DHT22;33679;51.218;6.786;2024-02-21T03:44:57;13.00;99.90
10583;DHT22;33679;51.218;6.786;2024-02-21T03:47:29;13.00;99.90
10583;DHT22;33679;51.218;6.786;2024-02-21T03:50:02;13.00;99.90
10583;DHT22;33679;51.218;6.786;2024-02-21T03:52:35;13.00;99.90
10583;DHT22;33679;51.218;6.786;2024-02-21T03:55:10;13.00;99.90
10583;DHT22;33679;51.218;6.786;2024-02-21T03:57:42;13.10;99.90
10583;DHT22;33679;51.218;6.786;2024-02-21T04:00:16;13.10;99.90
10583;DHT22;33679;51.218;6.786;2024-02-21T04:02:48;13.10;99.90
10583;DHT22;33679;51.218;6.786;2024-02-21T04:05:21;13.10;99.90
10583;DHT22;33679;51.218;6.786;2024-02-21T04:07:54;13.00;99.90
10583;DHT22;33679;51.218;6.786;2024-02-21T04:10:28;13.00;99.90
10583;DHT22;33679;51.218;6.786;2024-02-21T04:13:01;13.00;99.90
10583;DHT22;33679;51.218;6.786;2024-02-21T04:15:33;13.00;99.90
10583;DHT22;33679;51.218;6.786;2024-02-21T04:18:07;13.00;99.90
10583;DHT22;33679;51.218;6.786;2024-02-21T04:20:40;12.90;99.90
10583;DHT22;33679;51.218;6.786;2024-02-21T04:23:12;12.90;99.90
10583;DHT22;33679;51.218;6.786;2024-02-21T04:25:46;12.90;99.90
10583;DHT22;33679;51.218;6.786;2024-02-21T04:28:21;13.00;99.90
10583;DHT22;33679;51.218;6.786;2024-02-21T04:30:53;12.90;99.90
10583;DHT22;33679;51.218;6.786;2024-02-21T04:33:27;12.90;99.90
10583;DHT22;33679;51.218;6.786;2024-02-21T04:35:59;12.90;99.90
10583;DHT22;33679;51.218;6.786;2024-02-21T04:38:35;12.90;99.90
10583;DHT22;33679;51.218;6.786;2024-02-21T04:41:11;12.90;99.90
10583;DHT22;33679;51.218;6.786;2024-02-21T04:43:46;12.90;99.90
10583;DHT22;33679;51.218;6.786;2024-02-21T04:46:20;12.90;99.90
10583;DHT22;33679;51.218;6.786;2024-02-21T04:48:52;12.90;99.90
10583;DHT22;33679;51.218;6.786;2024-02-21T04:51:25;12.90;99.90
10583;DHT22;33679;51.218;6.786;2024-02-21T04:53:58;13.00;99.90
10583;DHT22;33679;51.218;6.786;2024-02-21T04:56:34;13.00;99.90
10583;DHT22;33679;51.218;6.786;2024-02-21T04:59:07;13.00;99.90
10583;DHT22;33679;51.218;6.786;2024-02-21T05:01:39;13.00;99.90
10583;DHT22;33679;51.218;6.786;2024-02-21T05:04:11;13.00;99.90
10583;DHT22;33679;51.218;6.786;2024-02-21T05:06:46;13.00;99.90
10583;DHT22;33679;51.218;6.786;2024-02-21T05:09:20;13.00;99.90
10583;DHT22;33679;51.218;6.786;2024-02-21T05:11:54;13.00;99.90
10583;DHT22;33679;51.218;6.786;2024-02-21T05:14:27;13.00;99.90
10583;DHT22;33679;51.218;6.786;2024-02-21T05:16:59;13.00;99.90
10583;DHT22;33679;51.218;6.786;2024-02-21T05:19:31;13.00;99.90
10583;DHT22;33679;51.218;6.786;2024-02-21T05:22:06;13.00;99.90
10583;DHT22;33679;51.218;6.786;2024-02-21T05:24:39;13.00;99.90
10583;DHT22;33679;51.218;6.786;2024-02-21T05:27:13;13.00;99.90
10583;DHT22;33679;51.218;6.786;2024-02-21T05:29:46;13.00;99.90
10583;DHT22;33679;51.218;6.786;2024-02-21T05:32:21;13.10;99.90
10583;DHT22;33679;51.218;6.786;2024-02-21T05:34:53;13.10;99.90
10583;DHT22;33679;51.218;6.786;2024-02-21T05:37:26;13.10;99.90
10583;DHT22;33679;51.218;6.786;2024-02-21T05:39:59;13.10;99.90
10583;DHT22;33679;51.218;6.786;2024-02-21T05:42:33;13.10;99.90
10583;DHT22;33679;51.218;6.786;2024-02-21T05:45:06;13.10;99.90
10583;DHT22;33679;51.218;6.786;2024-02-21T05:47:38;13.10;99.90
10583;DHT22;33679;51.218;6.786;2024-02-21T05:50:12;13.10;99.90
10583;DHT22;33679;51.218;6.786;2024-02-21T05:52:52;13.10;99.90
10583;DHT22;33679;51.218;6.786;2024-02-21T05:55:25;13.10;99.90
10583;DHT22;33679;51.218;6.786;2024-02-21T05:58:00;13.10;99.90
10583;DHT22;33679;51.218;6.786;2024-02-21T06:00:33;13.10;99.90
10583;DHT22;33679;51.218;6.786;2024-02-21T06:03:06;13.10;99.90
10583;DHT22;33679;51.218;6.786;2024-02-21T06:05:40;13.10;99.90
10583;DHT22;33679;51.218;6.786;2024-02-21T06:08:12;13.10;99.90
10583;DHT22;33679;51.218;6.786;2024-02-21T06:10:45;13.10;99.90
10583;DHT22;33679;51.218;6.786;2024-02-21T06:13:18;13.10;99.90
10583;DHT22;33679;51.218;6.786;2024-02-21T06:15:54;13.10;99.90
10583;DHT22;33679;51.218;6.786;2024-02-21T06:18:27;13.20;99.90
10583;DHT22;33679;51.218;6.786;2024-02-21T06:20:59;13.10;99.90
10583;DHT22;33679;51.218;6.786;2024-02-21T06:23:31;13.20;99.90
10583;DHT22;33679;51.218;6.786;2024-02-21T06:26:04;13.20;99.90
10583;DHT22;33679;51.218;6.786;2024-02-21T06:28:37;13.10;99.90
10583;DHT22;33679;51.218;6.786;2024-02-21T06:31:10;13.10;99.90
10583;DHT22;33679;51.218;6.786;2024-02-21T06:33:44;13.10;99.90
10583;DHT22;33679;51.218;6.786;2024-02-21T06:36:18;13.10;99.90
10583;DHT22;33679;51.218;6.786;2024-02-21T06:38:51;13.10;99.90
10583;DHT22;33679;51.218;6.786;2024-02-21T06:41:23;13.10;99.90
10583;DHT22;33679;51.218;6.786;2024-02-21T06:43:57;13.10;99.90
10583;DHT22;33679;51.218;6.786;2024-02-21T06:46:30;13.10;99.90
10583;DHT22;33679;51.218;6.786;2024-02-21T06:49:04;13.10;99.90
10583;DHT22;33679;51.218;6.786;2024-02-21T06:51:36;13.10;99.90
10583;DHT22;33679;51.218;6.786;2024-02-21T06:54:08;13.00;99.90
10583;DHT22;33679;51.218;6.786;2024-02-21T06:56:41;13.00;99.90
10583;DHT22;33679;51.218;6.786;2024-02-21T06:59:17;13.00;99.90
10583;DHT22;33679;51.218;6.786;2024-02-21T07:01:53;13.00;99.90
10583;DHT22;33679;51.218;6.786;2024-02-21T07:04:26;13.00;99.90
10583;DHT22;33679;51.218;6.786;2024-02-21T07:06:58;13.00;99.90
10583;DHT22;33679;51.218;6.786;2024-02-21T07:09:31;13.00;99.90
10583;DHT22;33679;51.218;6.786;2024-02-21T07:12:04;13.00;99.90
10583;DHT22;33679;51.218;6.786;2024-02-21T07:14:38;13.00;99.90
10583;DHT22;33679;51.218;6.786;2024-02-21T07:17:10;13.00;99.90
10583;DHT22;33679;51.218;6.786;2024-02-21T07:19:42;13.10;99.90
10583;DHT22;33679;51.218;6.786;2024-02-21T07:22:15;13.10;99.90
10583;DHT22;33679;51.218;6.786;2024-02-21T07:24:47;13.10;99.90
10583;DHT22;33679;51.218;6.786;2024-02-21T07:27:19;13.10;99.90
10583;DHT22;33679;51.218;6.786;2024-02-21T07:29:54;13.10;99.90
10583;DHT22;33679;51.218;6.786;2024-02-21T07:32:27;13.10;99.90
10583;DHT22;33679;51.218;6.786;2024-02-21T07:34:59;13.10;99.90
10583;DHT22;33679;51.218;6.786;2024-02-21T07:37:34;13.10;99.90
10583;DHT22;33679;51.218;6.786;2024-02-21T07:40:13;13.10;99.90
10583;DHT22;33679;51.218;6.786;2024-02-21T07:42:46;13.10;99.90
10583;DHT22;33679;51.218;6.786;2024-02-21T07:45:20;13.10;99.90
10583;DHT22;33679;51.218;6.786;2024-02-21T07:47:54;13.10;99.90
10583;DHT22;33679;51.218;6.786;2024-02-21T07:50:27;13.10;99.90
10583;DHT22;33679;51.218;6.786;2024-02-21T07:53:00;13.10;99.90
10583;DHT22;33679;51.218;6.786;2024-02-21T07:55:32;13.10;99.90
10583;DHT22;33679;51.218;6.786;2024-02-21T07:58:05;13.00;99.90
10583;DHT22;33679;51.218;6.786;2024-02-21T08:00:43;13.00;99.90
10583;DHT22;33679;51.218;6.786;2024-02-21T08:03:15;13.00;99.90
10583;DHT22;33679;51.218;6.786;2024-02-21T08:05:49;13.00;99.90
10583;DHT22;33679;51.218;6.786;2024-02-21T08:08:21;12.90;99.90
10583;DHT22;33679;51.218;6.786;2024-02-21T08:10:53;12.90;99.90
10583;DHT22;33679;51.218;6.786;2024-02-21T08:13:26;12.80;99.90
10583;DHT22;33679;51.218;6.786;2024-02-21T08:16:00;12.80;99.90
10583;DHT22;33679;51.218;6.786;2024-02-21T08:18:34;12.80;99.90
10583;DHT22;33679;51.218;6.786;2024-02-21T08:21:09;12.80;99.90
10583;DHT22;33679;51.218;6.786;2024-02-21T08:23:43;12.80;99.90
10583;DHT22;33679;51.218;6.786;2024-02-21T08:26:19;12.80;99.90
10583;DHT22;33679;51.218;6.786;2024-02-21T08:28:52;12.80;99.90
10583;DHT22;33679;51.218;6.786;2024-02-21T08:31:28;12.80;99.90
10583;DHT22;33679;51.218;6.786;2024-02-21T08:34:02;12.70;99.90
10583;DHT22;33679;51.218;6.786;2024-02-21T08:36:35;12.70;99.90
10583;DHT22;33679;51.218;6.786;2024-02-21T08:39:08;12.70;99.90
10583;DHT22;33679;51.218;6.786;2024-02-21T08:41:42;12.70;99.90
10583;DHT22;33679;51.218;6.786;2024-02-21T08:44:14;12.60;99.90
10583;DHT22;33679;51.218;6.786;2024-02-21T08:46:51;12.60;99.90
10583;DHT22;33679;51.218;6.786;2024-02-21T08:49:24;12.60;99.90
10583;DHT22;33679;51.218;6.786;2024-02-21T08:51:59;12.70;99.90
10583;DHT22;33679;51.218;6.786;2024-02-21T08:54:33;12.70;99.90
10583;DHT22;33679;51.218;6.786;2024-02-21T08:57:05;12.70;99.90
10583;DHT22;33679;51.218;6.786;2024-02-21T08:59:39;12.80;99.90
10583;DHT22;33679;51.218;6.786;2024-02-21T09:02:13;12.80;99.90
10583;DHT22;33679;51.218;6.786;2024-02-21T09:04:48;12.80;99.90
10583;DHT22;33679;51.218;6.786;2024-02-21T09:07:21;12.90;99.90
10583;DHT22;33679;51.218;6.786;2024-02-21T09:09:53;12.90;99.90
10583;DHT22;33679;51.218;6.786;2024-02-21T09:12:26;12.90;99.90
10583;DHT22;33679;51.218;6.786;2024-02-21T09:15:00;12.90;99.90
10583;DHT22;33679;51.218;6.786;2024-02-21T09:17:35;12.90;99.90
10583;DHT22;33679;51.218;6.786;2024-02-21T09:20:08;13.00;99.90
10583;DHT22;33679;51.218;6.786;2024-02-21T09:22:43;13.00;99.90
10583;DHT22;33679;51.218;6.786;2024-02-21T09:25:15;13.10;99.90
10583;DHT22;33679;51.218;6.786;2024-02-21T09:27:48;13.20;99.90
10583;DHT22;33679;51.218;6.786;2024-02-21T09:30:24;13.30;99.90
10583;DHT22;33679;51.218;6.786;2024-02-21T09:32:58;13.40;99.90
10583;DHT22;33679;51.218;6.786;2024-02-21T09:35:32;13.40;99.90
10583;DHT22;33679;51.218;6.786;2024-02-21T09:38:05;13.50;99.90
10583;DHT22;33679;51.218;6.786;2024-02-21T09:40:40;13.50;99.90
10583;DHT22;33679;51.218;6.786;2024-02-21T09:43:18;13.60;99.90
10583;DHT22;33679;51.218;6.786;2024-02-21T09:45:55;13.60;99.90
10583;DHT22;33679;51.218;6.786;2024-02-21T09:48:42;13.70;99.90
10583;DHT22;33679;51.218;6.786;2024-02-21T09:51:19;13.70;99.90
10583;DHT22;33679;51.218;6.786;2024-02-21T09:53:53;13.70;99.90
10583;DHT22;33679;51.218;6.786;2024-02-21T09:56:30;13.70;99.90
10583;DHT22;33679;51.218;6.786;2024-02-21T09:59:06;13.70;99.90
10583;DHT22;33679;51.218;6.786;2024-02-21T10:01:46;13.80;99.90
10583;DHT22;33679;51.218;6.786;2024-02-21T10:04:27;13.80;99.90
10583;DHT22;33679;51.218;6.786;2024-02-21T10:07:04;13.80;99.90
10583;DHT22;33679;51.218;6.786;2024-02-21T10:09:37;13.80;99.90
10583;DHT22;33679;51.218;6.786;2024-02-21T10:12:13;13.90;99.90
10583;DHT22;33679;51.218;6.786;2024-02-21T10:15:00;13.90;99.90
10583;DHT22;33679;51.218;6.786;2024-02-21T10:17:37;14.00;99.90
10583;DHT22;33679;51.218;6.786;2024-02-21T10:20:15;14.00;99.90
10583;DHT22;33679;51.218;6.786;2024-02-21T10:22:47;14.00;99.90
10583;DHT22;33679;51.218;6.786;2024-02-21T10:25:23;14.10;99.90
10583;DHT22;33679;51.218;6.786;2024-02-21T10:27:56;14.10;99.90
10583;DHT22;33679;51.218;6.786;2024-02-21T10:30:32;14.10;99.90
10583;DHT22;33679;51.218;6.786;2024-02-21T10:33:06;14.10;99.90
10583;DHT22;33679;51.218;6.786;2024-02-21T10:35:40;14.10;99.90
10583;DHT22;33679;51.218;6.786;2024-02-21T10:38:18;14.10;99.90
10583;DHT22;33679;51.218;6.786;2024-02-21T10:40:54;14.10;99.90
10583;DHT22;33679;51.218;6.786;2024-02-21T10:43:38;14.10;99.90
10583;DHT22;33679;51.218;6.786;2024-02-21T10:46:19;14.20;99.90
10583;DHT22;33679;51.218;6.786;2024-02-21T10:49:03;14.20;99.90
10583;DHT22;33679;51.218;6.786;2024-02-21T10:51:43;14.30;99.90
10583;DHT22;33679;51.218;6.786;2024-02-21T10:54:33;14.30;99.90
10583;DHT22;33679;51.218;6.786;2024-02-21T10:57:15;14.40;99.90
10583;DHT22;33679;51.218;6.786;2024-02-21T10:59:58;14.40;99.90
10583;DHT22;33679;51.218;6.786;2024-02-21T11:02:31;14.40;99.90
10583;DHT22;33679;51.218;6.786;2024-02-21T11:05:16;14.40;99.90
10583;DHT22;33679;51.218;6.786;2024-02-21T11:07:53;14.50;99.90
10583;DHT22;33679;51.218;6.786;2024-02-21T11:10:47;14.50;99.90
10583;DHT22;33679;51.218;6.786;2024-02-21T11:13:30;14.60;99.90
10583;DHT22;33679;51.218;6.786;2024-02-21T11:16:12;14.60;99.90
10583;DHT22;33679;51.218;6.786;2024-02-21T11:19:06;14.70;99.90
10583;DHT22;33679;51.218;6.786;2024-02-21T11:21:49;14.80;99.90
10583;DHT22;33679;51.218;6.786;2024-02-21T11:24:32;14.80;99.90
10583;DHT22;33679;51.218;6.786;2024-02-21T11:27:22;14.80;99.90
10583;DHT22;33679;51.218;6.786;2024-02-21T11:30:00;14.80;99.90
10583;DHT22;33679;51.218;6.786;2024-02-21T11:32:36;14.90;99.90
10583;DHT22;33679;51.218;6.786;2024-02-21T11:35:19;14.90;99.90
10583;DHT22;33679;51.218;6.786;2024-02-21T11:38:08;14.90;99.90
10583;DHT22;33679;51.218;6.786;2024-02-21T11:40:44;15.00;99.90
10583;DHT22;33679;51.218;6.786;2024-02-21T11:43:28;15.00;99.90
10583;DHT22;33679;51.218;6.786;2024-02-21T11:46:05;14.90;99.90
10583;DHT22;33679;51.218;6.786;2024-02-21T11:48:41;15.00;99.90
10583;DHT22;33679;51.218;6.786;2024-02-21T11:51:30;15.00;99.90
10583;DHT22;33679;51.218;6.786;2024-02-21T11:54:31;15.00;99.90
10583;DHT22;33679;51.218;6.786;2024-02-21T11:57:08;15.00;99.90
10583;DHT22;33679;51.218;6.786;2024-02-21T11:59:46;15.10;99.90
10583;DHT22;33679;51.218;6.786;2024-02-21T12:02:23;15.00;99.90
10583;DHT22;33679;51.218;6.786;2024-02-21T12:04:56;15.10;99.90
10583;DHT22;33679;51.218;6.786;2024-02-21T12:07:32;15.00;99.90
10583;DHT22;33679;51.218;6.786;2024-02-21T12:10:07;15.00;99.90
10583;DHT22;33679;51.218;6.786;2024-02-21T12:12:44;14.90;99.90
10583;DHT22;33679;51.218;6.786;2024-02-21T12:15:18;14.80;99.90
10583;DHT22;33679;51.218;6.786;2024-02-21T12:18:04;14.80;99.90
10583;DHT22;33679;51.218;6.786;2024-02-21T12:20:50;14.80;99.90
10583;DHT22;33679;51.218;6.786;2024-02-21T12:23:38;14.80;99.90
10583;DHT22;33679;51.218;6.786;2024-02-21T12:26:19;14.90;99.90
10583;DHT22;33679;51.218;6.786;2024-02-21T12:29:06;14.90;99.90
10583;DHT22;33679;51.218;6.786;2024-02-21T12:31:49;14.90;99.90
10583;DHT22;33679;51.218;6.786;2024-02-21T12:34:25;14.90;99.90
10583;DHT22;33679;51.218;6.786;2024-02-21T12:37:01;15.00;99.90
10583;DHT22;33679;51.218;6.786;2024-02-21T12:39:34;15.10;99.90
10583;DHT22;33679;51.218;6.786;2024-02-21T12:42:11;15.20;99.90
10583;DHT22;33679;51.218;6.786;2024-02-21T12:44:49;15.30;99.90
10583;DHT22;33679;51.218;6.786;2024-02-21T12:47:22;15.40;99.90
10583;DHT22;33679;51.218;6.786;2024-02-21T12:49:56;15.40;99.90
10583;DHT22;33679;51.218;6.786;2024-02-21T12:52:30;15.40;99.90
10583;DHT22;33679;51.218;6.786;2024-02-21T12:55:03;15.40;99.90
10583;DHT22;33679;51.218;6.786;2024-02-21T12:57:37;15.50;99.90
10583;DHT22;33679;51.218;6.786;2024-02-21T13:00:19;15.50;99.90
10583;DHT22;33679;51.218;6.786;2024-02-21T13:02:55;15.50;99.90
10583;DHT22;33679;51.218;6.786;2024-02-21T13:05:29;15.50;99.90
10583;DHT22;33679;51.218;6.786;2024-02-21T13:08:06;15.50;99.90
10583;DHT22;33679;51.218;6.786;2024-02-21T13:10:40;15.60;99.90
10583;DHT22;33679;51.218;6.786;2024-02-21T13:13:13;15.60;99.90
10583;DHT22;33679;51.218;6.786;2024-02-21T13:15:52;15.70;99.90
10583;DHT22;33679;51.218;6.786;2024-02-21T13:18:36;15.80;99.90
10583;DHT22;33679;51.218;6.786;2024-02-21T13:21:10;15.80;99.90
10583;DHT22;33679;51.218;6.786;2024-02-21T13:23:42;15.80;99.90
10583;DHT22;33679;51.218;6.786;2024-02-21T13:26:18;15.80;99.90
10583;DHT22;33679;51.218;6.786;2024-02-21T13:28:53;15.80;99.90
10583;DHT22;33679;51.218;6.786;2024-02-21T13:31:27;15.80;99.90
10583;DHT22;33679;51.218;6.786;2024-02-21T13:34:03;15.90;99.90
10583;DHT22;33679;51.218;6.786;2024-02-21T13:36:38;15.80;99.90
10583;DHT22;33679;51.218;6.786;2024-02-21T13:39:10;15.90;99.90
10583;DHT22;33679;51.218;6.786;2024-02-21T13:41:46;15.90;99.90
10583;DHT22;33679;51.218;6.786;2024-02-21T13:44:19;15.90;99.90
10583;DHT22;33679;51.218;6.786;2024-02-21T13:46:55;15.80;99.90
10583;DHT22;33679;51.218;6.786;2024-02-21T13:49:28;15.80;99.90
10583;DHT22;33679;51.218;6.786;2024-02-21T13:52:02;15.80;99.90
10583;DHT22;33679;51.218;6.786;2024-02-21T13:54:35;15.70;99.90
10583;DHT22;33679;51.218;6.786;2024-02-21T13:57:07;15.70;99.90
10583;DHT22;33679;51.218;6.786;2024-02-21T13:59:41;15.70;99.90
10583;DHT22;33679;51.218;6.786;2024-02-21T14:02:15;15.60;99.90
10583;DHT22;33679;51.218;6.786;2024-02-21T14:04:48;15.70;99.90
10583;DHT22;33679;51.218;6.786;2024-02-21T14:07:21;15.60;99.90
10583;DHT22;33679;51.218;6.786;2024-02-21T14:09:57;15.60;99.90
10583;DHT22;33679;51.218;6.786;2024-02-21T14:12:33;15.60;99.90
10583;DHT22;33679;51.218;6.786;2024-02-21T14:15:09;15.70;99.90
10583;DHT22;33679;51.218;6.786;2024-02-21T14:17:43;15.70;99.90
10583;DHT22;33679;51.218;6.786;2024-02-21T14:20:15;15.70;99.90
10583;DHT22;33679;51.218;6.786;2024-02-21T14:22:48;15.70;99.90
10583;DHT22;33679;51.218;6.786;2024-02-21T14:25:22;15.70;99.90
10583;DHT22;33679;51.218;6.786;2024-02-21T14:27:57;15.70;99.90
10583;DHT22;33679;51.218;6.786;2024-02-21T14:30:32;15.70;99.90
10583;DHT22;33679;51.218;6.786;2024-02-21T14:33:06;15.70;99.90
10583;DHT22;33679;51.218;6.786;2024-02-21T14:35:40;15.70;99.90
10583;DHT22;33679;51.218;6.786;2024-02-21T14:38:12;15.70;99.90
10583;DHT22;33679;51.218;6.786;2024-02-21T14:40:45;15.70;99.90
10583;DHT22;33679;51.218;6.786;2024-02-21T14:43:19;15.70;99.90
10583;DHT22;33679;51.218;6.786;2024-02-21T14:45:52;15.70;99.90
10583;DHT22;33679;51.218;6.786;2024-02-21T14:48:28;15.70;99.90
10583;DHT22;33679;51.218;6.786;2024-02-21T14:51:02;15.70;99.90
10583;DHT22;33679;51.218;6.786;2024-02-21T14:53:35;15.70;99.90
10583;DHT22;33679;51.218;6.786;2024-02-21T14:56:13;15.80;99.90
10583;DHT22;33679;51.218;6.786;2024-02-21T14:58:51;15.80;99.90
10583;DHT22;33679;51.218;6.786;2024-02-21T15:01:25;15.80;99.90
10583;DHT22;33679;51.218;6.786;2024-02-21T15:03:58;15.80;99.90
10583;DHT22;33679;51.218;6.786;2024-02-21T15:06:31;15.80;99.90
10583;DHT22;33679;51.218;6.786;2024-02-21T15:09:03;15.80;99.90
10583;DHT22;33679;51.218;6.786;2024-02-21T15:11:37;15.80;99.90
10583;DHT22;33679;51.218;6.786;2024-02-21T15:14:09;15.70;99.90
10583;DHT22;33679;51.218;6.786;2024-02-21T15:16:42;15.80;99.90
10583;DHT22;33679;51.218;6.786;2024-02-21T15:19:16;15.70;99.90
10583;DHT22;33679;51.218;6.786;2024-02-21T15:21:49;15.70;99.90
10583;DHT22;33679;51.218;6.786;2024-02-21T15:24:23;15.70;99.90
10583;DHT22;33679;51.218;6.786;2024-02-21T15:26:57;15.70;99.90
10583;DHT22;33679;51.218;6.786;2024-02-21T15:29:29;15.60;99.90
10583;DHT22;33679;51.218;6.786;2024-02-21T15:32:03;15.60;99.90
10583;DHT22;33679;51.218;6.786;2024-02-21T15:34:38;15.50;99.90
10583;DHT22;33679;51.218;6.786;2024-02-21T15:37:11;15.50;99.90
10583;DHT22;33679;51.218;6.786;2024-02-21T15:39:46;15.50;99.90
10583;DHT22;33679;51.218;6.786;2024-02-21T15:42:19;15.50;99.90
10583;DHT22;33679;51.218;6.786;2024-02-21T15:44:52;15.50;99.90
10583;DHT22;33679;51.218;6.786;2024-02-21T15:47:26;15.50;99.90
10583;DHT22;33679;51.218;6.786;2024-02-21T15:50:00;15.50;99.90
10583;DHT22;33679;51.218;6.786;2024-02-21T15:52:33;15.50;99.90
10583;DHT22;33679;51.218;6.786;2024-02-21T15:55:06;15.40;99.90
10583;DHT22;33679;51.218;6.786;2024-02-21T15:57:41;15.40;99.90
10583;DHT22;33679;51.218;6.786;2024-02-21T16:00:15;15.30;99.90
10583;DHT22;33679;51.218;6.786;2024-02-21T16:02:50;15.30;99.90
10583;DHT22;33679;51.218;6.786;2024-02-21T16:05:27;15.20;99.90
10583;DHT22;33679;51.218;6.786;2024-02-21T16:08:00;15.20;99.90
10583;DHT22;33679;51.218;6.786;2024-02-21T16:10:34;15.10;99.90
10583;DHT22;33679;51.218;6.786;2024-02-21T16:13:06;15.10;99.90
10583;DHT22;33679;51.218;6.786;2024-02-21T16:15:43;15.10;99.90